Time;durP1;ratioP1;P1;durP2;ratioP2;P2;SDS_P1;SDS_P2;PMS_P1;PMS_P2;Temp;Humidity;BMP_temperature;BMP_pressure;BME280_temperature;BME280_humidity;BME280_pressure;Samples;Min_cycle;Max_cycle;Signal;HPM_P1;HPM_P2
2022/05/18 00:00:55;;;;;;;21.90;11.47;;;;;;;12.99;37.24;99413.86;1670276;83;21522;-65
2022/05/18 00:03:26;;;;;;;23.18;10.18;;;;;;;12.98;37.61;99416.97;1658814;85;22270;-65
2022/05/18 00:05:53;;;;;;;18.35;9.80;;;;;;;12.95;37.71;99418.45;1663210;83;21578;-65
2022/05/18 00:08:20;;;;;;;12.63;8.70;;;;;;;13.13;37.59;99420.98;1665473;85;21606;-66
2022/05/18 00:10:49;;;;;;;16.73;7.10;;;;;;;13.19;37.48;99421.50;1689925;83;21417;-68
2022/05/18 00:13:16;;;;;;;10.13;6.92;;;;;;;13.10;37.68;99419.86;1676452;83;21430;-66
2022/05/18 00:15:44;;;;;;;;;;;;;;;13.15;37.93;99422.61;1718386;82;21764;-66
2022/05/18 00:18:11;;;;;;;10.43;4.47;;;;;;;13.06;37.99;99415.22;1726833;82;20417;-64
2022/05/18 00:20:38;;;;;;;8.15;4.80;;;;;;;13.03;37.95;99419.34;1725374;82;21511;-65
2022/05/18 00:23:05;;;;;;;8.05;3.92;;;;;;;13.06;38.06;99423.14;1722066;82;21543;-64
2022/05/18 00:25:35;;;;;;;7.17;3.45;;;;;;;13.03;38.13;99425.94;1724783;82;21494;-65
2022/05/18 00:28:03;;;;;;;5.33;3.20;;;;;;;12.98;38.47;99428.00;1713088;82;21931;-64
2022/05/18 00:30:30;;;;;;;5.53;2.45;;;;;;;12.93;38.55;99431.36;1723003;82;21540;-64
2022/05/18 00:33:03;;;;;;;5.63;2.80;;;;;;;12.88;38.54;99437.36;1715572;82;21589;-65
2022/05/18 00:35:26;;;;;;;5.05;3.20;;;;;;;12.77;38.71;99436.63;1716067;82;21719;-64
2022/05/18 00:37:53;;;;;;;14.27;5.30;;;;;;;12.78;38.80;99442.30;1725031;82;21545;-63
2022/05/18 00:40:21;;;;;;;11.57;6.20;;;;;;;12.71;39.09;99444.87;1719742;82;21916;-65
2022/05/18 00:42:48;;;;;;;10.60;5.92;;;;;;;12.56;39.12;99440.81;1717203;82;21444;-64
2022/05/18 00:45:15;;;;;;;15.23;6.28;;;;;;;12.50;39.27;99446.91;1718362;82;21459;-66
2022/05/18 00:47:42;;;;;;;10.58;6.35;;;;;;;12.48;39.47;99454.05;1728423;82;21507;-65
2022/05/18 00:50:24;;;;;;;13.72;6.70;;;;;;;12.48;39.49;99451.41;1728839;82;20975;-64
2022/05/18 00:53:09;;;;;;;16.60;8.35;;;;;;;12.39;39.95;99453.58;1713455;82;21866;-64
2022/05/18 00:55:39;;;;;;;20.92;10.25;;;;;;;12.45;39.85;99449.77;1719200;82;21700;-65
2022/05/18 00:58:31;;;;;;;20.45;9.93;;;;;;;12.36;39.81;99451.61;1710196;82;21679;-67
2022/05/18 01:00:58;;;;;;;22.13;10.55;;;;;;;12.33;39.92;99454.39;1725605;82;21550;-67
2022/05/18 01:03:41;;;;;;;30.33;13.87;;;;;;;12.29;40.17;99460.77;1724437;82;21558;-64
2022/05/18 01:06:22;;;;;;;34.45;15.98;;;;;;;12.26;40.25;99459.13;1721596;82;21861;-64
2022/05/18 01:09:14;;;;;;;32.85;14.63;;;;;;;12.16;40.31;99459.23;1719670;82;21515;-65
2022/05/18 01:11:42;;;;;;;32.60;15.83;;;;;;;12.09;40.39;99458.69;1718112;82;21455;-64
2022/05/18 01:14:25;;;;;;;29.23;15.30;;;;;;;12.08;40.59;99465.75;1720141;82;21550;-64
2022/05/18 01:16:52;;;;;;;28.50;13.85;;;;;;;12.13;40.69;99458.06;1722683;82;21444;-65
2022/05/18 01:19:45;;;;;;;29.23;13.85;;;;;;;11.96;40.97;99454.55;1723612;82;21830;-65
2022/05/18 01:22:38;;;;;;;24.70;11.15;;;;;;;11.93;41.35;99457.33;1713179;82;21384;-65
2022/05/18 01:25:18;;;;;;;21.50;9.63;;;;;;;11.97;41.38;99461.50;1724850;82;21569;-65
2022/05/18 01:27:45;;;;;;;18.45;8.20;;;;;;;11.56;42.57;99466.20;1725854;82;21557;-65
2022/05/18 01:30:13;;;;;;;16.07;7.50;;;;;;;11.77;42.12;99473.48;1718881;82;20959;-65
2022/05/18 01:32:46;;;;;;;11.30;6.20;;;;;;;11.67;42.45;99462.09;1719907;82;22201;-64
2022/05/18 01:35:20;;;;;;;12.98;6.22;;;;;;;11.67;42.29;99467.36;1720436;82;21407;-65
2022/05/18 01:37:47;;;;;;;14.20;5.47;;;;;;;11.63;42.40;99462.33;1722348;82;21533;-66
2022/05/18 01:40:39;;;;;;;10.15;5.95;;;;;;;11.56;42.66;99464.88;1718238;82;21451;-66
2022/05/18 01:43:22;;;;;;;8.95;5.62;;;;;;;11.58;42.71;99471.77;1716038;82;21002;-65
2022/05/18 01:45:52;;;;;;;11.55;5.45;;;;;;;11.52;42.65;99464.17;1718638;82;21908;-70
2022/05/18 01:48:21;;;;;;;15.68;6.62;;;;;;;11.59;42.78;99468.69;1721896;82;21571;-65
2022/05/18 01:50:48;;;;;;;13.60;5.78;;;;;;;11.46;43.01;99471.91;1722881;82;21498;-67
2022/05/18 01:53:14;;;;;;;8.10;4.97;;;;;;;11.42;43.29;99473.47;1715193;82;21465;-67
2022/05/18 01:55:43;;;;;;;14.13;6.42;;;;;;;11.47;43.30;99474.07;1681580;83;21577;-67
2022/05/18 01:58:12;;;;;;;14.30;5.40;;;;;;;11.32;43.91;99480.09;1683852;83;24903;-67
2022/05/18 02:00:38;;;;;;;12.05;5.42;;;;;;;11.28;43.93;99479.38;1675324;83;21615;-67
2022/05/18 02:03:05;;;;;;;11.93;4.83;;;;;;;11.45;43.91;99487.78;1725256;82;21503;-66
2022/05/18 02:05:32;;;;;;;17.23;4.33;;;;;;;11.13;44.73;99483.59;1715012;82;21049;-68
2022/05/18 02:07:59;;;;;;;8.43;4.55;;;;;;;11.23;44.39;99486.20;1725894;82;23016;-66
2022/05/18 02:10:26;;;;;;;11.18;4.30;;;;;;;11.27;44.38;99491.70;1721000;82;21932;-67
2022/05/18 02:12:53;;;;;;;9.10;4.83;;;;;;;11.16;44.89;99489.20;1719996;82;20955;-66
2022/05/18 02:15:22;;;;;;;7.57;4.77;;;;;;;10.51;45.75;99489.09;1709846;82;21445;-66
2022/05/18 02:17:51;;;;;;;12.28;5.12;;;;;;;10.23;47.04;99495.16;1716323;82;21523;-65
2022/05/18 02:20:19;;;;;;;10.85;5.70;;;;;;;10.11;47.33;99497.39;1702385;82;21415;-68
2022/05/18 02:22:47;;;;;;;13.75;6.65;;;;;;;10.10;48.05;99496.98;1712176;82;21905;-66
2022/05/18 02:25:14;;;;;;;18.37;7.42;;;;;;;10.07;48.01;99502.36;1696616;82;21507;-65
2022/05/18 02:27:42;;;;;;;23.02;7.92;;;;;;;10.03;48.26;99503.41;1721749;82;21538;-66
2022/05/18 02:30:10;;;;;;;15.65;7.80;;;;;;;10.01;48.17;99509.66;1719605;82;21547;-65
2022/05/18 02:32:37;;;;;;;17.75;7.87;;;;;;;10.13;48.26;99507.38;1712964;82;21420;-66
2022/05/18 02:35:05;;;;;;;15.13;7.67;;;;;;;10.17;48.03;99504.59;1714920;82;21904;-65
2022/05/18 02:37:33;;;;;;;28.57;10.05;;;;;;;10.18;48.25;99508.47;1704911;82;21550;-65
2022/05/18 02:40:01;;;;;;;23.20;10.08;;;;;;;9.99;48.63;99508.88;1708801;82;21519;-65
2022/05/18 02:42:28;;;;;;;23.30;10.98;;;;;;;10.20;48.26;99517.61;1710436;82;21503;-65
2022/05/18 02:44:55;;;;;;;20.92;11.60;;;;;;;10.20;48.38;99516.30;1709858;82;21431;-65
2022/05/18 02:47:23;;;;;;;25.05;11.60;;;;;;;10.18;48.40;99515.52;1706240;82;21994;-65
2022/05/18 02:49:51;;;;;;;27.05;11.75;;;;;;;10.22;48.17;99515.30;1656870;85;21109;-66
2022/05/18 02:52:19;;;;;;;23.42;10.95;;;;;;;10.49;47.77;99516.34;1714795;81;21588;-68
2022/05/18 02:57:31;;;;;;;21.23;10.13;;;;;;;10.62;47.57;99520.13;1722051;82;21527;-68
2022/05/18 02:59:58;;;;;;;26.90;9.53;;;;;;;10.59;47.88;99518.98;1706856;82;21932;-66
2022/05/18 03:02:24;;;;;;;21.12;8.43;;;;;;;10.58;47.80;99520.35;1714300;82;21441;-66
2022/05/18 03:04:51;;;;;;;21.02;8.53;;;;;;;10.60;47.91;99522.45;1722618;82;21471;-66
2022/05/18 03:07:18;;;;;;;16.23;8.63;;;;;;;10.63;47.93;99528.89;1715432;82;21562;-66
2022/05/18 03:09:45;;;;;;;16.70;8.60;;;;;;;10.64;48.05;99526.64;1708755;82;21428;-66
2022/05/18 03:12:12;;;;;;;19.67;8.65;;;;;;;10.51;48.56;99521.11;1714724;82;21857;-66
2022/05/18 03:14:39;;;;;;;17.55;8.15;;;;;;;10.64;48.59;99526.64;1722293;82;21511;-66
2022/05/18 03:17:05;;;;;;;24.57;8.55;;;;;;;10.73;48.17;99529.33;1720090;80;21513;-67
2022/05/18 03:19:33;;;;;;;15.80;7.80;;;;;;;10.21;48.70;99528.05;1717983;81;21549;-66
2022/05/18 03:24:44;;;;;;;21.40;8.58;;;;;;;10.55;49.16;99527.05;1715506;82;21838;-66
2022/05/18 03:27:11;;;;;;;19.67;8.80;;;;;;;10.57;48.99;99531.34;1716163;82;21463;-66
2022/05/18 03:29:37;;;;;;;20.75;9.68;;;;;;;10.61;48.91;99528.96;1709326;82;21657;-66
2022/05/18 03:32:05;;;;;;;22.65;11.38;;;;;;;10.54;49.55;99534.09;1717416;82;21545;-67
2022/05/18 03:34:33;;;;;;;29.23;11.50;;;;;;;10.57;49.55;99536.59;1718031;82;21586;-66
2022/05/18 03:37:01;;;;;;;19.00;10.88;;;;;;;10.67;49.76;99529.14;1712234;82;22177;-66
2022/05/18 03:39:28;;;;;;;27.98;12.15;;;;;;;10.45;49.86;99533.18;1709008;82;20960;-68
2022/05/18 03:41:55;;;;;;;29.40;13.03;;;;;;;10.35;50.40;99535.83;1709134;82;21455;-67
2022/05/18 03:44:22;;;;;;;;;;;;;;;10.30;50.72;99537.30;1722536;82;21526;-66
2022/05/18 03:46:49;;;;;;;34.85;14.43;;;;;;;10.32;50.89;99540.74;1718104;82;20574;-66
2022/05/18 03:49:16;;;;;;;26.60;13.72;;;;;;;10.23;51.39;99538.51;1711924;82;21954;-67
2022/05/18 03:51:43;;;;;;;31.15;14.73;;;;;;;10.37;51.27;99542.72;1710796;82;21456;-66
2022/05/18 03:54:10;;;;;;;33.53;14.05;;;;;;;10.46;50.92;99538.84;1713910;82;21606;-67
2022/05/18 03:56:37;;;;;;;28.47;13.65;;;;;;;10.17;51.61;99547.95;1709075;82;21420;-68
2022/05/18 03:59:04;;;;;;;26.85;12.55;;;;;;;10.03;52.53;99546.76;1716012;82;21552;-66
2022/05/18 04:01:31;;;;;;;27.02;13.03;;;;;;;10.09;52.97;99550.90;1713549;82;21515;-67
2022/05/18 04:03:59;;;;;;;36.95;14.47;;;;;;;10.30;52.71;99545.18;1717078;82;21451;-67
2022/05/18 04:06:26;;;;;;;35.55;13.58;;;;;;;10.39;52.44;99551.86;1652792;85;21609;-66
2022/05/18 04:08:54;;;;;;;28.95;13.53;;;;;;;10.35;52.41;99556.39;1655564;85;21575;-66
2022/05/18 04:11:22;;;;;;;26.90;13.30;;;;;;;10.29;52.46;99550.06;1658088;85;21612;-66
2022/05/18 04:13:50;;;;;;;32.15;13.25;;;;;;;10.14;53.30;99557.66;1650598;84;21870;-66
2022/05/18 04:16:18;;;;;;;23.45;11.93;;;;;;;10.17;53.38;99561.08;1639304;85;21016;-66
2022/05/18 04:18:44;;;;;;;25.68;12.50;;;;;;;10.31;53.39;99566.65;1656938;83;21519;-67
2022/05/18 04:21:11;;;;;;;30.10;12.63;;;;;;;10.42;52.94;99560.47;1649189;85;21576;-66
2022/05/18 04:23:39;;;;;;;27.98;12.20;;;;;;;10.46;52.99;99565.98;1641226;85;21487;-67
2022/05/18 04:26:08;;;;;;;27.35;11.68;;;;;;;10.59;53.14;99566.30;1653276;85;21874;-67
2022/05/18 04:28:35;;;;;;;;;;;;;;;10.73;53.07;99573.56;1659267;84;21555;-66
2022/05/18 04:31:02;;;;;;;27.30;12.25;;;;;;;10.84;53.16;99573.94;1651156;83;20199;-67
2022/05/18 04:33:29;;;;;;;20.65;10.98;;;;;;;11.23;52.05;99566.94;1655362;84;21521;-66
2022/05/18 04:35:56;;;;;;;32.90;12.13;;;;;;;11.40;51.58;99564.83;1672993;84;21524;-66
2022/05/18 04:38:23;;;;;;;25.17;10.47;;;;;;;11.60;51.32;99571.31;1662870;83;21845;-66
2022/05/18 04:40:50;;;;;;;28.07;11.90;;;;;;;11.72;51.19;99569.02;1663810;84;22317;-66
2022/05/18 04:43:20;;;;;;;22.10;10.98;;;;;;;11.78;50.84;99572.66;1659614;84;21464;-67
2022/05/18 04:45:47;;;;;;;22.87;11.05;;;;;;;11.76;51.08;99571.88;1701617;82;21452;-66
2022/05/18 04:48:16;;;;;;;23.70;11.27;;;;;;;11.89;50.92;99576.94;1698874;82;21499;-67
2022/05/18 04:50:45;;;;;;;17.87;10.18;;;;;;;11.73;51.45;99574.66;1691797;82;21755;-66
2022/05/18 04:53:12;;;;;;;27.95;11.00;;;;;;;11.80;51.37;99574.75;1712898;82;21471;-66
2022/05/18 04:57:42;;;;;;;23.67;11.10;;;;;;;11.13;54.74;99584.91;1785052;78;23090;-71
2022/05/18 05:00:12;;;;;;;20.95;11.05;;;;;;;12.22;51.04;99582.35;1737626;80;21426;-63
2022/05/18 05:02:39;;;;;;;28.77;12.15;;;;;;;12.30;50.50;99583.28;1735489;80;21842;-63
2022/05/18 05:05:08;;;;;;;19.52;11.40;;;;;;;12.34;50.08;99578.67;1738765;80;21613;-62
2022/05/18 05:07:37;;;;;;;23.60;12.68;;;;;;;12.37;50.05;99574.09;1749337;80;21604;-61
2022/05/18 05:10:04;;;;;;;27.85;13.35;;;;;;;12.35;50.25;99579.91;1747902;80;21504;-64
2022/05/18 05:12:32;;;;;;;33.88;13.00;;;;;;;12.09;50.79;99577.28;1737801;80;21499;-63
2022/05/18 05:14:58;;;;;;;26.20;12.68;;;;;;;12.08;51.27;99578.23;1733768;80;21902;-64
2022/05/18 05:17:25;;;;;;;21.35;10.78;;;;;;;12.09;51.08;99579.91;1733043;80;21526;-61
2022/05/18 05:19:54;;;;;;;24.00;11.65;;;;;;;12.43;50.51;99585.67;1732403;80;21549;-63
2022/05/18 05:22:21;;;;;;;18.20;10.23;;;;;;;12.58;50.38;99581.83;1744761;80;20994;-66
2022/05/18 05:24:48;;;;;;;19.60;10.00;;;;;;;12.59;50.38;99587.03;1727406;80;21525;-66
2022/05/18 05:27:15;;;;;;;23.35;10.65;;;;;;;12.55;50.12;99587.29;1735722;81;21744;-61
2022/05/18 05:29:42;;;;;;;17.10;9.63;;;;;;;12.77;49.49;99593.14;1751122;80;21395;-65
2022/05/18 05:32:11;;;;;;;;;;;;;;;11.76;51.79;99595.59;1741038;80;21475;-66
2022/05/18 05:34:38;;;;;;;;;;;;;;;11.48;53.59;99605.64;1763753;80;20421;-64
2022/05/18 05:37:05;;;;;;;19.05;10.35;;;;;;;11.63;53.70;99593.53;1743292;80;20418;-61
2022/05/18 05:39:32;;;;;;;15.60;9.05;;;;;;;11.51;52.85;99602.03;1739060;80;21893;-61
2022/05/18 05:41:59;;;;;;;17.73;10.13;;;;;;;11.86;52.80;99597.68;1695437;81;21565;-66
2022/05/18 05:44:26;;;;;;;17.65;9.40;;;;;;;11.99;52.35;99599.28;1682504;83;21547;-64
2022/05/18 05:46:53;;;;;;;20.85;9.80;;;;;;;12.19;52.04;99606.22;1694944;83;21448;-67
2022/05/18 05:49:20;;;;;;;15.80;9.30;;;;;;;12.23;52.07;99609.08;1697107;82;20995;-63
2022/05/18 05:51:47;;;;;;;16.97;9.00;;;;;;;12.49;51.32;99608.67;1707399;82;21526;-62
2022/05/18 05:54:13;;;;;;;13.95;8.58;;;;;;;12.70;50.79;99612.86;1701219;82;21538;-60
2022/05/18 05:56:40;;;;;;;13.63;8.20;;;;;;;12.75;50.36;99612.61;1699532;82;21503;-61
2022/05/18 05:59:07;;;;;;;16.42;7.67;;;;;;;12.73;50.39;99613.16;1722966;80;21508;-60
2022/05/18 06:01:35;;;;;;;;;;;;;;;12.42;50.80;99615.59;1742135;80;21530;-61
2022/05/18 06:04:03;;;;;;;11.22;7.42;;;;;;;12.44;50.98;99612.41;1728250;80;21793;-61
2022/05/18 06:06:31;;;;;;;10.08;6.53;;;;;;;12.38;51.19;99626.39;1688742;82;21502;-61
2022/05/18 06:08:58;;;;;;;16.15;6.35;;;;;;;12.44;51.43;99623.43;1723721;80;21496;-61
2022/05/18 06:11:27;;;;;;;11.45;6.33;;;;;;;12.40;51.75;99624.05;1689428;82;21496;-62
2022/05/18 06:13:54;;;;;;;10.23;5.67;;;;;;;12.41;51.95;99628.84;1694651;82;21596;-61
2022/05/18 06:16:20;;;;;;;13.40;5.00;;;;;;;12.44;52.25;99628.23;1724022;80;22213;-61
2022/05/18 06:18:47;;;;;;;6.80;5.30;;;;;;;12.56;52.06;99624.58;1724773;80;21585;-61
2022/05/18 06:21:16;;;;;;;10.13;5.42;;;;;;;12.63;51.77;99629.45;1687443;83;23077;-62
2022/05/18 06:23:43;;;;;;;11.50;5.10;;;;;;;12.56;52.09;99624.58;1735556;80;21448;-63
2022/05/18 06:26:10;;;;;;;9.25;5.20;;;;;;;12.57;52.33;99627.63;1709939;80;21416;-62
2022/05/18 06:28:37;;;;;;;11.90;5.75;;;;;;;12.53;52.43;99628.71;1744009;80;21916;-62
2022/05/18 06:31:04;;;;;;;11.55;5.72;;;;;;;12.43;52.42;99637.09;1724079;80;21641;-62
2022/05/18 06:33:33;;;;;;;9.55;5.70;;;;;;;12.71;52.13;99631.70;1719525;80;21454;-62
2022/05/18 06:35:59;;;;;;;8.48;5.08;;;;;;;12.55;52.45;99634.28;1732137;80;21444;-63
2022/05/18 06:38:26;;;;;;;8.38;5.00;;;;;;;12.46;52.97;99638.70;1726985;81;20983;-61
2022/05/18 06:43:40;;;;;;;9.73;5.12;;;;;;;12.65;53.01;99648.69;1729499;80;21538;-61
2022/05/18 06:46:07;;;;;;;13.30;5.12;;;;;;;12.67;53.08;99645.98;1733175;80;21540;-61
2022/05/18 06:48:34;;;;;;;10.65;5.12;;;;;;;12.68;52.85;99649.47;1726887;80;21525;-60
2022/05/18 06:51:01;;;;;;;7.80;5.12;;;;;;;12.70;52.75;99644.52;1732620;80;21521;-60
2022/05/18 06:53:28;;;;;;;9.50;5.15;;;;;;;12.69;52.54;99648.08;1729939;80;22160;-60
2022/05/18 06:55:54;;;;;;;10.18;5.08;;;;;;;12.79;52.25;99649.77;1731346;80;21003;-60
2022/05/18 06:58:22;;;;;;;8.98;5.55;;;;;;;12.82;52.04;99654.42;1698469;82;21438;-60
2022/05/18 07:00:48;;;;;;;8.15;4.75;;;;;;;12.78;51.84;99652.88;1706425;82;21612;-60
2022/05/18 07:03:16;;;;;;;9.27;5.13;;;;;;;12.73;52.21;99656.21;1699326;82;21442;-60
2022/05/18 07:05:44;;;;;;;10.45;5.53;;;;;;;12.72;52.68;99659.80;1729368;80;21840;-61
2022/05/18 07:08:13;;;;;;;11.15;5.37;;;;;;;12.87;52.29;99666.08;1727236;80;21561;-61
2022/05/18 07:10:40;;;;;;;12.07;5.40;;;;;;;13.13;51.96;99663.39;1733847;80;21584;-60
2022/05/18 07:13:07;;;;;;;10.58;6.28;;;;;;;13.17;51.47;99663.61;1737052;80;21644;-60
2022/05/18 07:15:34;;;;;;;9.38;4.80;;;;;;;13.17;51.47;99663.61;1682888;83;21613;-64
2022/05/18 07:18:01;;;;;;;8.10;4.37;;;;;;;13.38;51.13;99666.91;1746607;80;22045;-62
2022/05/18 07:20:28;;;;;;;6.75;4.10;;;;;;;13.18;51.31;99668.41;1687759;82;21512;-62
2022/05/18 07:22:55;;;;;;;5.70;3.63;;;;;;;13.28;51.25;99676.69;1696087;82;21514;-62
2022/05/18 07:25:22;;;;;;;7.77;3.77;;;;;;;13.06;51.79;99679.16;1708688;82;20981;-62
2022/05/18 07:27:50;;;;;;;6.20;3.05;;;;;;;13.07;51.98;99682.17;1733667;79;21562;-62
2022/05/18 07:30:17;;;;;;;6.17;3.30;;;;;;;13.11;52.39;99673.17;1731346;80;21459;-61
2022/05/18 07:32:44;;;;;;;5.80;3.02;;;;;;;13.28;52.82;99685.93;1732938;80;21573;-62
2022/05/18 07:35:11;;;;;;;5.65;3.15;;;;;;;13.38;52.83;99684.55;1737137;80;21850;-60
2022/05/18 07:37:37;;;;;;;7.00;3.70;;;;;;;13.47;52.39;99684.50;1730987;80;21551;-61
2022/05/18 07:40:06;;;;;;;5.97;4.22;;;;;;;13.47;52.52;99684.50;1693312;83;21553;-60
2022/05/18 07:42:35;;;;;;;10.98;3.60;;;;;;;13.43;52.43;99686.01;1732766;80;21737;-60
2022/05/18 07:45:03;;;;;;;8.98;4.20;;;;;;;13.44;52.58;99683.73;1729383;80;21503;-61
2022/05/18 07:47:32;;;;;;;8.80;4.10;;;;;;;13.56;52.78;99692.81;1696178;82;21420;-61
2022/05/18 07:50:01;;;;;;;8.03;4.47;;;;;;;13.66;53.06;99700.23;1736554;80;21480;-62
2022/05/18 07:52:28;;;;;;;8.98;3.67;;;;;;;14.03;52.46;99683.16;1738704;79;21692;-66
2022/05/18 07:54:55;;;;;;;13.75;4.37;;;;;;;13.94;52.24;99688.52;1745869;80;22161;-65
2022/05/18 07:57:22;;;;;;;7.25;3.40;;;;;;;13.96;52.58;99694.56;1746262;80;21428;-65
2022/05/18 07:59:59;;;;;;;7.28;4.20;;;;;;;14.13;52.85;99690.13;1733457;80;21450;-65
2022/05/18 08:02:26;;;;;;;8.20;4.15;;;;;;;14.25;53.31;99690.73;1701931;83;21612;-63
2022/05/18 08:04:53;;;;;;;5.92;4.50;;;;;;;14.20;52.87;99696.30;1703586;82;21438;-65
2022/05/18 08:07:20;;;;;;;4.78;3.37;;;;;;;14.27;52.90;99694.14;1703841;82;21935;-60
2022/05/18 08:15:21;;;;;;;5.00;3.42;;;;;;;14.05;54.98;99702.43;1703805;83;21000;-61
2022/05/18 08:17:48;;;;;;;8.63;5.00;;;;;;;13.99;55.02;99695.73;1684170;82;21566;-63
2022/05/18 08:20:20;;;;;;;8.95;4.87;;;;;;;13.86;54.94;99701.28;1689828;82;21538;-63
2022/05/18 08:22:47;;;;;;;8.75;4.70;;;;;;;13.72;55.88;99708.66;1685942;83;21601;-59
2022/05/18 08:25:14;;;;;;;9.75;5.45;;;;;;;13.79;56.19;99701.27;1699909;82;21681;-62
2022/05/18 08:27:46;;;;;;;6.15;3.87;;;;;;;13.75;56.64;99707.19;1666983;82;21637;-63
2022/05/18 08:30:17;;;;;;;7.90;3.60;;;;;;;14.07;55.92;99709.83;1697483;82;21492;-61
2022/05/18 08:32:45;;;;;;;6.33;3.08;;;;;;;14.01;56.15;99707.51;1661621;83;21520;-60
2022/05/18 08:35:14;;;;;;;6.70;3.25;;;;;;;14.01;56.75;99708.38;1686740;82;21454;-62
2022/05/18 08:37:43;;;;;;;4.10;2.80;;;;;;;13.90;57.59;99710.77;1693403;82;21062;-65
2022/05/18 08:40:28;;;;;;;4.30;3.02;;;;;;;13.88;58.44;99707.81;1685622;82;21416;-61
2022/05/18 08:43:01;;;;;;;5.05;3.02;;;;;;;13.93;58.56;99713.70;1692530;82;21498;-60
2022/05/18 08:45:38;;;;;;;4.37;3.10;;;;;;;13.90;58.44;99721.80;1695925;82;21919;-62
2022/05/18 08:48:25;;;;;;;6.13;3.00;;;;;;;13.80;59.00;99714.84;1685299;82;21034;-62
2022/05/18 08:50:53;;;;;;;5.23;3.07;;;;;;;13.76;59.34;99718.59;1693162;82;21785;-65
2022/05/18 08:53:40;;;;;;;7.00;3.37;;;;;;;13.70;60.18;99718.47;1697969;83;27048;-64
2022/05/18 08:56:25;;;;;;;;;;;;;;;13.69;60.74;99723.35;1685732;83;21573;-63
2022/05/18 08:58:53;;;;;;;5.35;3.33;;;;;;;13.91;61.43;99720.39;1694609;82;21905;-61
2022/05/18 09:01:25;;;;;;;4.67;3.08;;;;;;;14.04;60.87;99713.96;1699242;82;21089;-62
2022/05/18 09:04:00;;;;;;;4.80;3.02;;;;;;;13.97;61.13;99723.16;1715219;82;21583;-63
2022/05/18 09:06:43;;;;;;;3.30;2.60;;;;;;;14.24;59.97;99722.55;1688682;82;21467;-62
2022/05/18 09:11:59;;;;;;;3.47;2.58;;;;;;;14.48;60.65;99717.17;1703802;82;21796;-63
2022/05/18 09:14:28;;;;;;;4.72;2.92;;;;;;;14.66;60.09;99715.78;1705892;82;21206;-63
2022/05/18 09:17:28;;;;;;;3.80;2.62;;;;;;;14.64;60.29;99714.54;1685645;82;21602;-62
2022/05/18 09:20:25;;;;;;;4.12;2.10;;;;;;;14.59;59.83;99719.23;1705174;82;21557;-63
2022/05/18 09:23:27;;;;;;;5.10;3.20;;;;;;;14.17;60.56;99728.19;1698204;82;21558;-62
2022/05/18 09:26:17;;;;;;;3.87;2.72;;;;;;;14.02;61.22;99725.09;1698667;82;21543;-63
2022/05/18 09:29:07;;;;;;;2.33;2.00;;;;;;;14.14;62.18;99730.16;1692610;82;21606;-62
2022/05/18 09:32:19;;;;;;;3.12;2.02;;;;;;;14.23;61.84;99724.83;1702239;82;21527;-62
2022/05/18 09:35:03;;;;;;;2.85;2.10;;;;;;;14.30;61.33;99728.36;1709639;82;21026;-62
2022/05/18 09:37:54;;;;;;;3.10;1.85;;;;;;;14.28;61.35;99734.20;1700460;82;21444;-63
2022/05/18 09:40:37;;;;;;;3.12;1.80;;;;;;;14.10;61.98;99727.30;1710794;82;21787;-63
2022/05/18 09:43:18;;;;;;;3.42;1.57;;;;;;;14.13;62.33;99738.56;1700781;82;21653;-62
2022/05/18 09:45:50;;;;;;;1.75;1.25;;;;;;;14.27;61.71;99728.52;1706763;82;21628;-62
2022/05/18 09:48:39;;;;;;;1.62;1.20;;;;;;;14.51;60.64;99729.39;1707720;82;21030;-64
2022/05/18 09:51:08;;;;;;;6.97;1.77;;;;;;;14.44;60.61;99731.53;1699623;82;21562;-66
2022/05/18 09:53:37;;;;;;;2.63;0.97;;;;;;;14.30;60.90;99731.00;1703119;82;22610;-64
2022/05/18 09:56:10;;;;;;;1.45;1.00;;;;;;;14.28;61.64;99735.53;1699172;82;21769;-64
2022/05/18 09:58:39;;;;;;;1.95;1.27;;;;;;;14.22;61.47;99735.85;1667241;82;21523;-64
2022/05/18 10:07:30;;;;;;;1.60;1.30;;;;;;;14.17;61.74;99742.73;1737205;80;21598;-63
2022/05/18 10:10:13;;;;;;;1.60;1.27;;;;;;;14.28;62.04;99748.75;1737845;80;21116;-65
2022/05/18 10:12:53;;;;;;;1.37;1.00;;;;;;;14.44;62.18;99748.72;1738229;80;21452;-62
2022/05/18 10:15:48;;;;;;;7.25;1.72;;;;;;;14.47;62.03;99755.65;1743357;80;21606;-65
2022/05/18 10:18:29;;;;;;;2.27;1.27;;;;;;;14.34;62.05;99760.77;1700592;83;21636;-63
2022/05/18 10:24:04;;;;;;;2.45;1.22;;;;;;;14.39;62.82;99759.58;1591097;86;21506;-62
2022/05/18 10:26:41;;;;;;;1.45;1.25;;;;;;;14.52;62.68;99763.70;1632884;86;21580;-60
2022/05/18 10:29:21;;;;;;;2.70;1.60;;;;;;;14.50;62.75;99766.88;1632591;86;21577;-63
2022/05/18 10:32:21;;;;;;;1.62;1.40;;;;;;;14.56;62.48;99772.29;1628143;86;21599;-62
2022/05/18 10:34:51;;;;;;;2.90;1.65;;;;;;;14.53;62.33;99773.81;1602192;86;21849;-62
2022/05/18 10:37:34;;;;;;;3.67;1.87;;;;;;;14.38;62.98;99780.34;1629626;86;22002;-60
2022/05/18 10:40:20;;;;;;;2.85;2.12;;;;;;;14.43;62.92;99781.87;1624630;86;21440;-61
2022/05/18 10:42:56;;;;;;;2.98;2.30;;;;;;;14.57;62.46;99787.27;1636915;86;21518;-60
2022/05/18 10:45:33;;;;;;;2.90;2.52;;;;;;;14.59;62.68;99786.23;1631284;86;21508;-61
2022/05/18 10:48:16;;;;;;;2.58;2.33;;;;;;;14.57;63.02;99785.47;1595563;87;21867;-62
2022/05/18 10:50:45;;;;;;;3.02;2.30;;;;;;;14.68;63.17;99790.16;1632098;85;21478;-60
2022/05/18 10:53:20;;;;;;;4.35;2.92;;;;;;;14.90;63.18;99796.39;1627358;85;20969;-63
2022/05/18 10:56:04;;;;;;;4.45;3.15;;;;;;;14.79;62.38;99790.88;1623622;86;21534;-62
2022/05/18 10:58:42;;;;;;;5.78;3.60;;;;;;;14.84;61.75;99798.05;1629739;86;21611;-63
2022/05/18 11:01:23;;;;;;;4.95;3.22;;;;;;;14.83;61.86;99798.16;1633850;86;27174;-62
2022/05/18 11:04:01;;;;;;;4.12;3.17;;;;;;;14.88;62.11;99801.38;1632926;86;21606;-61
2022/05/18 11:06:40;;;;;;;5.97;3.30;;;;;;;14.98;60.94;99799.91;1621095;86;21533;-61
2022/05/18 11:09:18;;;;;;;3.33;2.95;;;;;;;14.98;60.70;99801.23;1630104;86;21537;-62
2022/05/18 11:12:05;;;;;;;9.15;3.37;;;;;;;14.93;61.02;99798.84;1636226;86;21497;-61
2022/05/18 11:14:58;;;;;;;;;;;;;;;14.78;60.72;99798.41;1633648;86;21781;-61
2022/05/18 11:17:58;;;;;;;4.78;3.00;;;;;;;14.48;61.59;99799.19;1631640;86;20475;-60
2022/05/18 11:20:55;;;;;;;4.45;3.20;;;;;;;14.43;61.91;99800.38;1611313;86;21471;-60
2022/05/18 11:23:45;;;;;;;4.85;3.25;;;;;;;14.48;61.89;99802.31;1625756;86;21033;-62
2022/05/18 11:26:27;;;;;;;3.42;3.12;;;;;;;14.43;62.05;99799.94;1629187;86;21592;-61
2022/05/18 11:29:30;;;;;;;3.67;3.35;;;;;;;14.37;62.19;99805.10;1627040;86;21893;-63
2022/05/18 11:32:48;;;;;;;5.55;3.42;;;;;;;14.30;62.17;99816.11;1618906;86;21536;-59
2022/05/18 11:36:09;;;;;;;3.72;3.40;;;;;;;14.56;61.94;99815.95;1624910;86;21462;-60
2022/05/18 11:39:11;;;;;;;3.65;3.35;;;;;;;14.61;61.88;99820.55;1616806;86;21563;-59
2022/05/18 11:41:56;;;;;;;6.00;3.72;;;;;;;14.63;61.38;99835.02;1623573;86;21591;-60
2022/05/18 11:44:50;;;;;;;4.08;3.17;;;;;;;14.30;62.38;99832.83;1626303;86;21694;-60
2022/05/18 11:47:46;;;;;;;11.50;3.62;;;;;;;14.35;62.66;99836.08;1624357;86;21544;-59
2022/05/18 11:50:39;;;;;;;5.05;3.58;;;;;;;14.40;62.61;99833.16;1625425;86;21462;-58
2022/05/18 11:53:29;;;;;;;3.77;3.35;;;;;;;14.32;62.82;99835.39;1624423;86;21573;-59
2022/05/18 11:56:07;;;;;;;3.05;2.85;;;;;;;14.37;62.92;99843.91;1618126;86;21467;-61
2022/05/18 11:59:10;;;;;;;4.47;2.80;;;;;;;14.43;63.08;99846.67;1618423;86;21928;-59
2022/05/18 12:01:29;;;;;;;5.87;3.40;;;;;;;14.51;62.66;99851.94;1627685;85;21499;-64
2022/05/18 12:04:27;;;;;;;4.40;3.15;;;;;;;14.57;62.33;99850.30;1619817;86;21982;-60
2022/05/18 12:07:29;;;;;;;3.55;3.08;;;;;;;14.45;61.85;99854.93;1619737;86;21486;-59
2022/05/18 12:10:36;;;;;;;6.30;2.80;;;;;;;14.44;61.57;99861.14;1626677;85;21048;-60
2022/05/18 12:13:15;;;;;;;5.42;2.60;;;;;;;14.40;62.86;99864.91;1624072;86;21873;-60
2022/05/18 12:15:53;;;;;;;8.08;2.58;;;;;;;14.78;62.06;99871.20;1628195;85;21624;-60
2022/05/18 12:18:30;;;;;;;3.37;2.55;;;;;;;14.89;61.08;99868.80;1621393;86;21028;-60
2022/05/18 12:21:14;;;;;;;3.00;2.73;;;;;;;14.85;60.64;99883.63;1621854;86;21555;-61
2022/05/18 12:23:45;;;;;;;2.42;2.25;;;;;;;14.89;61.00;99887.33;1624384;86;21569;-60